KALB/ALB METAR and TAF weather

Enter ICAO airport designator
Station Type Date Time Source
KALB METAR 2019/12/14 05:51 UTC NOAA

KALB 140551Z 34004KT 1 1/4SM -RA BR BKN003 OVC007 02/M01 A2997 RMK AO2 SFC VIS 1 1/2 PRESFR SLP150 VIS 1 1/4V1 3/4 P0002 60006 I1000 I6000 T00171006 10017 20011 58041


Station Type Date Time Source
KALB Decoded METAR 2019/12/14 05:51 UTC NOAA

ALBANY INTERNATIONAL AIRPORT, NY, United States (KALB) 42-45N 73-48W
Dec 14, 2019 - 12:51 AM EST / 2019.12.14 0551 UTC
Wind: from the NNW (340 degrees) at 5 MPH (4 KT):0
Visibility: 1 1/4 mile(s):0
Sky conditions: overcast
Weather: light rain; mist
Precipitation last hour: 0.02 inches
Temperature: 35.1 F (1.7 C)
Dew Point: 30.9 F (-0.6 C)
Relative Humidity: 84%
Pressure (altimeter): 29.97 in. Hg (1014 hPa)
Pressure tendency: falling rapidly - 0.12 inches (4.1 hPa) lower than three hours ago
ob: KALB 140551Z 34004KT 1 1/4SM -RA BR BKN003 OVC007 02/M01 A2997 RMK AO2 SFC VIS 1 1/2 PRESFR SLP150 VIS 1 1/4V1 3/4 P0002 60006 I1000 I6000 T00171006 10017 20011 58041
cycle: 6

Station Type Date Time Source
KALB TAF 2019/12/14 06:42 UTC NOAA

TAF KALB 140538Z 1406/1506 04004KT 2SM -RA BR OVC006 WS020/14030KT
FM141400 01005KT 2SM -RA BR OVC008
FM141500 02004KT 2SM BR OVC006
FM150100 21010KT 4SM -RA BR OVC007
FM150500 24010G18KT P6SM OVC015

Example: see airport list